Elba, Alabama
Current Conditions -  °F | °C
As of 3:15 PM on Saturday 20 Dec 2014 (Local Time) from KEDN Reporting Station
Overcast Overcast  
Wind Chill: 13°   Ceiling: 10000
Heat Index: 13°   Visibility: 10mi
Dew Point: 10°   Wind: 3mph
Humidity: 82%   Direction: 350°N
Pressure: 30.1"   Gusts: NA
Location:  31.41°N, 86.07°W
Report Text: KEDN 202115Z AUTO 35003KT 10SM SCT075 OVC100 13/10 A3010 RMK AO2
Loading
Personal Weather Stations






























Interactive Weather Map New forecast layout! Learn more

10-Day Weather Forecast

Advertisements
Track Severe Weather on mobile